DW2150 Weather Reports


time (UTC)temp
C
wind
direction
speed
KPH
gust
KPH
rain 1hr
cm
rain 24hr
cm
rain mn
cm
humidity
%
barometer
mb
20220525140743 19 217 1.6 4.8 0.00 2.64 1.47 98 1004.1
20220525140242 19 76 3.2 3.2 0.00 2.64 1.47 98 1003.7
20220525135742 19 181 1.6 1.6 0.00 2.64 1.47 98 1005.8
20220525135241 20 160 0.0 1.6 0.00 2.64 1.47 98 1006.8
20220525134740 20 222 0.0 0.0 0.00 2.64 1.47 98 1007.8
20220525134239 20 244 0.0 4.8 0.00 2.64 1.47 99 1008.8
20220525133738 19 244 0.0 4.8 0.00 2.64 1.47 98 1008.8
20220525133237 19 244 0.0 4.8 0.00 2.64 1.47 98 1009.1
20220525132737 19 321 0.0 4.8 0.00 2.64 1.47 98 1008.5
20220525132235 19 285 1.6 3.2 0.00 2.64 1.47 98 1008.5
20220525131735 19 285 1.6 4.8 0.00 2.64 1.47 98 1008.5
20220525131234 19 284 1.6 4.8 0.00 2.64 1.47 98 1009.1
20220525130734 19 61 1.6 4.8 0.00 2.64 1.47 98 1008.8
20220525130233 19 317 1.6 4.8 0.00 2.64 1.47 98 1008.8
20220525125732 19 135 0.0 6.4 0.03 2.64 1.47 98 1008.8
20220525125231 18 135 0.0 6.4 0.03 2.64 1.47 98 1008.8
20220525124731 18 238 0.0 8.0 0.03 2.64 1.47 98 1008.8
20220525124230 18 264 1.6 8.0 0.03 2.64 1.47 98 1008.5
20220525123729 18 39 3.2 6.4 0.03 2.64 1.47 98 1008.5
20220525123228 18 73 3.2 14.5 0.03 2.64 1.47 98 1008.5
20220525122728 18 341 3.2 14.5 0.03 2.64 1.47 98 1008.1
20220525122227 18 55 3.2 14.5 0.03 2.64 1.47 98 1007.8
20220525121726 18 148 1.6 14.5 0.03 2.64 1.47 98 1007.8
20220525121225 18 37 3.2 12.9 0.03 2.64 1.47 98 1007.1
20220525120724 18 355 1.6 12.9 0.05 2.64 1.47 98 1007.1
20220525120223 18 62 4.8 12.9 0.05 2.64 1.47 98 1006.8
20220525115722 18 58 3.2 9.7 0.03 2.62 1.45 98 1007.8
20220525115221 18 77 3.2 9.7 0.05 2.62 1.45 98 1008.8
20220525114720 18 71 4.8 8.0 0.05 2.62 1.45 98 1009.1
20220525114220 18 37 3.2 8.0 0.08 2.62 1.45 98 1009.1
20220525113719 18 10 1.6 3.2 0.10 2.62 1.45 98 1009.1
20220525113218 18 5 0.0 1.6 0.10 2.62 1.45 98 1008.8
20220525112718 17 38 1.6 1.6 0.13 2.62 1.45 98 1008.8
20220525112217 17 38 0.0 1.6 0.15 2.62 1.45 98 1009.1
20220525111716 17 38 0.0 6.4 0.18 2.62 1.45 98 1008.8
20220525111215 17 38 0.0 6.4 0.23 2.62 1.45 98 1008.8
20220525110714 17 134 0.0 6.4 0.23 2.59 1.42 98 1008.5
20220525110213 17 87 1.6 6.4 0.23 2.59 1.42 98 1008.8
20220525105712 17 49 3.2 6.4 0.25 2.59 1.42 98 1008.8
20220525105211 17 64 0.0 6.4 0.23 2.57 1.40 98 1009.1
20220525104710 17 5 0.0 6.4 0.25 2.57 1.40 98 1009.1
20220525104209 17 42 1.6 1.6 0.23 2.54 1.37 98 1009.5
20220525103708 17 59 0.0 0.0 0.20 2.51 1.35 98 1010.2
20220525103207 17 54 0.0 4.8 0.20 2.51 1.35 97 1010.8
20220525102707 17 54 0.0 4.8 0.18 2.49 1.32 98 1011.2
20220525102206 17 54 0.0 4.8 0.18 2.46 1.30 98 1011.5
20220525101705 17 12 3.2 8.0 0.20 2.44 1.27 97 1011.5
20220525101205 17 28 1.6 8.0 0.30 2.39 1.22 97 1011.5
20220525100704 18 270 1.6 8.0 0.46 2.36 1.19 97 1011.5
20220525100203 18 260 1.6 8.0 0.58 2.36 1.19 97 1011.9
20220525095702 18 164 1.6 11.3 0.71 2.34 1.17 97 1011.9
20220525095201 17 227 0.0 11.3 0.97 2.34 1.17 97 1011.9
20220525094700 17 251 4.8 14.5 1.07 2.31 1.14 97 1011.5
20220525094159 17 254 6.4 14.5 1.14 2.31 1.14 97 1011.9
20220525093658 17 276 4.8 16.1 1.14 2.31 1.14 97 1011.9
20220525093158 18 248 6.4 24.1 1.14 2.31 1.14 97 1011.5
20220525092657 18 254 4.8 24.1 1.14 2.31 1.14 97 1011.2
20220525092156 18 252 4.8 24.1 1.12 2.29 1.12 97 1011.2
20220525091655 18 243 4.8 24.1 1.07 2.24 1.07 97 1011.2
20220525091154 18 244 8.0 24.1 0.91 2.08 0.91 97 1011.5
20220525090653 18 253 4.8 35.4 0.74 1.91 0.74 97 1011.5
20220525090153 18 237 9.7 35.4 0.61 1.78 0.61 97 1011.5
20220525085652 18 243 6.4 53.1 0.46 1.63 0.46 96 1011.2
20220525085151 19 238 14.5 53.1 0.18 1.35 0.20 96 1011.2
20220525084650 20 239 14.5 53.1 0.05 1.22 0.08 95 1010.2
20220525084150 22 239 19.3 53.1 0.00 1.17 0.00 97 1010.5
20220525083649 23 278 3.2 6.4 0.00 1.17 0.00 99 1008.8
20220525083148 23 346 1.6 1.6 0.00 1.17 0.00 99 1008.8
20220525082647 23 346 0.0 1.6 0.00 1.17 0.00 99 1008.1
20220525082146 23 346 0.0 1.6 0.00 1.17 0.00 99 1008.1
20220525081645 23 346 0.0 1.6 0.00 1.17 0.00 99 1008.5
20220525081144 23 346 0.0 1.6 0.00 1.17 0.00 99 1008.5
20220525080643 23 346 1.6 1.6 0.00 1.17 0.00 99 1008.5
20220525080143 23 346 0.0 1.6 0.00 1.17 0.00 99 1008.5
20220525075641 22 355 0.0 0.0 0.00 1.17 0.00 99 1008.5
20220525075141 22 355 0.0 0.0 0.00 1.17 0.00 99 1008.1
20220525074640 22 355 0.0 0.0 0.00 1.17 0.00 99 1008.1
20220525074139 22 355 0.0 0.0 0.00 1.17 0.00 99 1008.1
20220525073638 22 355 0.0 0.0 0.00 1.17 0.00 99 1008.1
20220525073137 22 355 0.0 0.0 0.00 1.17 0.00 99 1008.1
20220525072636 22 355 0.0 0.0 0.00 1.17 0.00 99 1008.5
20220525072135 22 355 0.0 0.0 0.00 1.17 0.00 99 1008.1
20220525071634 22 355 0.0 0.0 0.00 1.17 0.00 99 1008.1
20220525071133 22 355 0.0 0.0 0.00 1.17 0.00 99 1008.1
20220525070632 22 355 0.0 0.0 0.00 1.17 0.00 99 1007.8
20220525070131 22 355 0.0 0.0 0.00 1.17 0.00 99 1007.5
20220525065631 22 355 0.0 0.0 0.00 1.17 0.00 98 1007.5
20220525065130 21 355 0.0 0.0 0.00 1.17 0.00 98 1007.5
20220525064629 21 355 0.0 0.0 0.00 1.17 0.00 98 1007.5
20220525064128 21 355 0.0 0.0 0.00 1.17 0.00 98 1007.5
20220525063628 21 355 0.0 1.6 0.00 1.17 0.00 98 1007.5
20220525063127 21 355 0.0 1.6 0.00 1.17 0.00 98 1007.5
20220525062626 21 355 0.0 1.6 0.00 1.17 0.00 98 1007.8
20220525062126 21 181 0.0 0.0 0.00 1.17 0.00 98 1007.5
20220525061625 21 181 0.0 0.0 0.00 1.17 0.00 98 1007.8
20220525061124 21 181 0.0 0.0 0.00 1.17 0.00 98 1007.8
20220525060623 21 181 0.0 0.0 0.00 1.17 0.00 98 1008.1
20220525060122 21 181 0.0 0.0 0.00 1.17 0.00 98 1007.8
20220525055622 21 181 0.0 0.0 0.00 1.17 0.00 98 1007.8
20220525055121 21 181 0.0 0.0 0.00 1.17 0.00 98 1008.1
20220525054620 21 181 0.0 0.0 0.00 1.17 0.00 98 1007.8
20220525054119 21 181 0.0 0.0 0.00 1.17 0.00 98 1007.8
20220525053619 21 181 0.0 0.0 0.00 1.17 0.00 98 1007.8
20220525053118 21 181 0.0 0.0 0.00 1.17 0.00 98 1007.8
20220525052617 21 181 0.0 0.0 0.00 1.17 0.00 98 1007.8
20220525052116 21 181 0.0 0.0 0.00 1.17 0.00 98 1007.8
20220525051615 21 181 0.0 0.0 0.00 1.17 0.00 98 1007.8
20220525051115 21 181 0.0 0.0 0.00 1.17 0.00 98 1007.8
20220525050614 21 181 0.0 0.0 0.00 1.17 0.00 98 1007.8
20220525050114 21 181 0.0 0.0 0.00 1.17 0.00 98 1008.1
20220525045613 21 181 0.0 0.0 0.00 1.17 1.17 98 1008.5
20220525045112 22 181 0.0 0.0 0.00 1.17 1.17 98 1008.5
20220525044611 22 181 0.0 0.0 0.00 1.17 1.17 98 1008.5
20220525044110 22 181 0.0 0.0 0.00 1.17 1.17 98 1008.1
20220525043610 22 181 0.0 0.0 0.00 1.17 1.17 98 1008.1
20220525043109 22 181 0.0 0.0 0.00 1.17 1.17 98 1008.1
20220525042608 22 181 0.0 0.0 0.00 1.17 1.17 98 1008.5
20220525042107 22 181 0.0 0.0 0.00 1.17 1.17 98 1008.1
20220525041607 22 181 0.0 0.0 0.00 1.17 1.17 98 1008.1
20220525041106 22 181 0.0 0.0 0.00 1.17 1.17 98 1008.1
20220525040605 22 181 0.0 0.0 0.00 1.17 1.17 98 1008.1
20220525040105 22 181 0.0 0.0 0.00 1.17 1.17 98 1008.1
20220525035604 22 181 0.0 0.0 0.00 1.17 1.17 98 1008.1
20220525035103 22 181 0.0 0.0 0.00 1.17 1.17 98 1007.8
20220525034602 22 181 0.0 0.0 0.00 1.17 1.17 98 1007.8
20220525034101 22 181 0.0 0.0 0.00 1.17 1.17 98 1007.8
20220525033600 22 181 0.0 1.6 0.00 1.17 1.17 98 1007.8
20220525033059 22 181 0.0 1.6 0.00 1.17 1.17 98 1007.8
20220525032558 22 181 0.0 1.6 0.00 1.17 1.17 98 1007.8
20220525032057 22 181 0.0 1.6 0.00 1.17 1.17 98 1007.8
20220525031556 22 181 1.6 1.6 0.00 1.17 1.17 98 1007.8
20220525031056 22 181 0.0 1.6 0.00 1.17 1.17 98 1007.8
20220525030555 22 181 0.0 1.6 0.00 1.17 1.17 98 1007.5
20220525030054 22 181 0.0 1.6 0.00 1.17 1.17 98 1007.5
20220525025553 22 181 0.0 1.6 0.00 1.17 1.17 98 1007.5
20220525025053 22 181 0.0 0.0 0.00 1.17 1.17 98 1007.5
20220525024551 22 181 0.0 0.0 0.00 1.17 1.17 98 1007.1
20220525024050 23 181 0.0 1.6 0.00 1.17 1.17 98 1006.8
20220525023550 23 181 0.0 1.6 0.00 1.17 1.17 98 1006.4
20220525023049 23 181 0.0 3.2 0.00 1.17 1.17 98 1006.4
20220525022548 23 181 0.0 3.2 0.00 1.17 1.17 98 1006.4
20220525022047 23 181 0.0 3.2 0.00 1.17 1.17 98 1006.4
20220525021546 23 188 1.6 4.8 0.00 1.17 1.17 98 1006.4
20220525021046 23 81 1.6 4.8 0.00 1.17 1.17 98 1006.4
20220525020545 23 150 1.6 4.8 0.00 1.17 1.17 98 1006.4
20220525020044 23 150 1.6 4.8 0.00 1.17 1.17 98 1006.1
20220525015543 23 217 0.0 1.6 0.00 1.17 1.17 98 1006.1
20220525015043 23 194 0.0 1.6 0.00 1.17 1.17 98 1005.8
20220525014542 23 200 0.0 1.6 0.00 1.17 1.17 98 1005.8
20220525014041 23 197 1.6 1.6 0.00 1.17 1.17 98 1005.8
20220525013540 23 178 1.6 1.6 0.00 1.17 1.17 98 1005.8
20220525013039 23 178 0.0 1.6 0.00 1.17 1.17 98 1005.8
20220525012538 23 178 0.0 1.6 0.00 1.17 1.17 97 1005.4
20220525012037 23 178 0.0 1.6 0.00 1.17 1.17 98 1005.4
20220525011536 23 178 0.0 1.6 0.00 1.17 1.17 98 1005.4
20220525011036 23 178 0.0 1.6 0.00 1.17 1.17 98 1005.1
20220525010535 23 178 1.6 1.6 0.00 1.17 1.17 98 1005.1
20220525010034 23 178 1.6 3.2 0.00 1.17 1.17 97 1005.1
20220525005533 23 178 0.0 3.2 0.00 1.17 1.17 97 1005.1
20220525005033 23 190 0.0 3.2 0.00 1.17 1.17 97 1004.7
20220525004532 23 190 1.6 3.2 0.00 1.17 1.17 97 1004.7
20220525004031 23 209 0.0 1.6 0.00 1.17 1.17 97 1005.1
20220525003531 23 209 0.0 1.6 0.00 1.17 1.17 97 1005.1
20220525003030 23 209 1.6 1.6 0.00 1.17 1.17 97 1005.1
20220525002529 23 209 0.0 3.2 0.00 1.17 1.17 97 1005.1
20220525002029 23 209 0.0 3.2 0.00 1.17 1.17 97 1005.4
20220525001528 23 209 1.6 3.2 0.00 1.17 1.17 97 1005.4
20220525001027 23 209 1.6 3.2 0.00 1.17 1.17 97 1005.4
20220525000526 23 213 0.0 1.6 0.00 1.17 1.17 97 1005.4
20220525000025 23 212 1.6 1.6 0.03 1.17 1.17 97 1005.4
20220524235525 23 212 0.0 1.6 0.05 1.17 1.17 97 1005.4
20220524235024 23 212 0.0 1.6 0.18 1.17 1.17 97 1005.4
20220524234523 23 275 1.6 1.6 0.18 1.17 1.17 97 1005.4
20220524234022 23 188 0.0 1.6 0.18 1.17 1.17 97 1005.4
20220524233522 23 188 0.0 1.6 0.18 1.17 1.17 97 1005.8
20220524233021 23 188 1.6 1.6 0.18 1.17 1.17 96 1005.8
20220524232520 23 188 0.0 0.0 0.18 1.17 1.17 96 1005.8
20220524232019 23 188 0.0 0.0 0.18 1.17 1.17 96 1005.8
20220524231518 23 188 0.0 0.0 0.18 1.17 1.17 96 1005.8
20220524231017 23 188 0.0 6.4 0.18 1.17 1.17 96 1006.1
20220524230517 23 188 0.0 6.4 0.18 1.17 1.17 95 1006.4
20220524230016 24 188 0.0 6.4 0.15 1.14 1.14 95 1006.4
20220524225515 24 358 3.2 6.4 0.10 1.09 1.09 95 1006.4
20220524225015 24 175 1.6 3.2 0.00 0.99 0.99 95 1006.4
20220524224514 25 19 1.6 3.2 0.00 0.99 0.99 96 1006.4
20220524224013 24 349 3.2 3.2 0.03 0.99 0.99 96 1006.8
20220524223512 25 257 0.0 4.8 0.03 0.99 0.99 95 1006.8
20220524223011 25 229 1.6 4.8 0.03 0.99 0.99 95 1006.8
20220524222510 25 229 1.6 4.8 0.05 0.99 0.99 95 1006.8
20220524222010 25 206 1.6 4.8 0.05 0.99 0.99 95 1006.8
20220524221509 25 341 3.2 4.8 0.05 0.99 0.99 95 1006.8
20220524221008 25 153 1.6 4.8 0.05 0.99 0.99 94 1006.8
20220524220508 25 155 1.6 1.6 0.05 0.99 0.99 95 1006.8
20220524220007 25 155 1.6 1.6 0.05 0.99 0.99 95 1006.8
20220524215506 25 298 1.6 1.6 0.05 0.99 0.99 95 1006.4
20220524215006 25 93 1.6 1.6 0.05 0.99 0.99 95 1006.8
20220524214505 25 93 0.0 3.2 0.05 0.99 0.99 94 1006.4
20220524214004 25 93 0.0 6.4 0.03 0.97 0.97 93 1006.4
20220524213504 26 93 0.0 6.4 0.03 0.97 0.97 92 1006.8
20220524213003 26 93 1.6 6.4 0.03 0.97 0.97 90 1006.8
20220524212502 26 41 1.6 8.0 0.00 0.94 0.94 89 1006.8
20220524212001 26 35 3.2 8.0 0.00 0.94 0.94 89 1006.8
20220524211500 26 8 3.2 9.7 0.00 0.94 0.94 91 1006.8
20220524210959 26 11 3.2 9.7 0.00 0.94 0.94 90 1006.8
20220524210459 26 76 3.2 8.0 0.00 0.94 0.94 90 1006.8
20220524205958 26 23 3.2 8.0 0.00 0.94 0.94 89 1006.8
20220524205457 26 46 1.6 4.8 0.00 0.94 0.94 90 1007.1
20220524204956 26 33 3.2 4.8 0.00 0.94 0.94 89 1007.1
20220524204456 26 69 1.6 6.4 0.00 0.94 0.94 90 1007.1
20220524203955 26 34 1.6 6.4 0.00 0.94 0.94 89 1007.5
20220524203454 26 36 1.6 6.4 0.00 0.94 0.94 87 1007.5
20220524202954 26 43 3.2 8.0 0.00 0.94 0.94 86 1007.8
20220524202453 26 53 3.2 11.3 0.00 0.94 0.94 89 1007.8
20220524201952 25 322 3.2 11.3 0.00 0.94 0.94 91 1008.1
20220524201451 25 34 4.8 11.3 0.00 0.94 0.94 92 1008.1
20220524200950 25 56 4.8 11.3 0.00 0.94 0.94 91 1008.1
20220524200449 24 1 1.6 11.3 0.00 0.94 0.94 92 1008.5
20220524195948 24 40 3.2 11.3 0.00 0.94 0.94 91 1008.8
20220524195447 24 10 1.6 11.3 0.00 0.94 0.94 92 1008.8
20220524194947 24 56 3.2 9.7 0.00 0.94 0.94 93 1008.8
20220524194446 24 72 3.2 9.7 0.00 0.94 0.94 93 1008.5
20220524193945 24 56 3.2 11.3 0.00 0.94 0.94 92 1008.5
20220524193445 24 63 3.2 11.3 0.00 0.94 0.94 92 1008.1
20220524192944 24 27 3.2 11.3 0.00 0.94 0.94 91 1008.1
20220524192443 24 49 4.8 9.7 0.00 0.94 0.94 91 1008.5
20220524191942 25 34 4.8 9.7 0.00 0.94 0.94 93 1008.5
20220524191441 25 20 1.6 4.8 0.00 0.94 0.94 92 1008.5
20220524190941 25 21 1.6 3.2 0.00 0.94 0.94 92 1008.5
20220524190440 25 5 0.0 0.0 0.00 0.94 0.94 94 1008.5
20220524185940 24 360 0.0 0.0 0.00 0.94 0.94 92 1008.1
20220524185439 24 221 0.0 0.0 0.00 0.94 0.94 95 1008.5
20220524184938 24 219 0.0 0.0 0.00 0.94 0.94 95 1008.5
20220524184438 24 215 0.0 0.0 0.00 0.94 0.94 96 1008.5
20220524183937 23 212 0.0 0.0 0.00 0.94 0.94 96 1008.5
20220524183436 23 24 0.0 1.6 0.00 0.94 0.94 96 1008.5
20220524182935 23 162 0.0 3.2 0.03 0.94 0.94 96 1008.8
20220524182434 23 51 0.0 3.2 0.03 0.94 0.94 97 1008.8
20220524181934 23 18 0.0 4.8 0.03 0.94 0.94 97 1008.8
20220524181433 23 45 1.6 4.8 0.03 0.94 0.94 97 1008.8
20220524180932 23 60 1.6 4.8 0.03 0.94 0.94 98 1008.8
20220524180432 23 59 3.2 4.8 0.03 0.94 0.94 98 1008.8
20220524175931 23 28 1.6 4.8 0.05 0.94 0.94 98 1008.8
20220524175430 22 28 1.6 4.8 0.05 0.94 0.94 98 1009.1
20220524174929 22 28 1.6 4.8 0.08 0.94 0.94 98 1009.1
20220524174428 22 13 1.6 4.8 0.08 0.94 0.94 98 1009.1
20220524173927 22 13 1.6 4.8 0.10 0.94 0.94 98 1008.8
20220524173427 22 12 1.6 4.8 0.13 0.94 0.94 98 1008.5
20220524172926 22 43 3.2 4.8 0.10 0.91 0.91 98 1008.8
20220524172425 22 88 1.6 6.4 0.13 0.91 0.91 98 1008.8
20220524171924 22 61 0.0 6.4 0.15 0.91 0.91 98 1009.1
20220524171423 22 29 1.6 6.4 0.20 0.91 0.91 98 1008.8
20220524170923 22 30 1.6 6.4 0.23 0.91 0.91 97 1008.8
20220524170422 21 79 1.6 6.4 0.28 0.91 0.91 98 1008.5
20220524165921 21 19 3.2 6.4 0.28 0.89 0.89 98 1008.5
20220524165420 21 48 1.6 4.8 0.33 0.89 0.89 97 1008.8
20220524164920 21 59 3.2 4.8 0.33 0.86 0.86 97 1009.1
20220524164419 21 35 1.6 4.8 0.33 0.86 0.86 97 1009.1
20220524163918 21 45 1.6 3.2 0.33 0.84 0.84 97 1009.1
20220524163417 21 302 0.0 3.2 0.33 0.81 0.81 97 1009.1
20220524162917 21 302 1.6 3.2 0.41 0.81 0.81 97 1009.5
20220524162416 21 292 1.6 1.6 0.56 0.79 0.79 96 1009.5
20220524161916 21 292 0.0 1.6 0.74 0.76 0.76 96 1009.5
20220524161415 21 292 0.0 1.6 0.71 0.71 0.71 96 1009.5
20220524160914 21 292 1.6 3.2 0.69 0.69 0.69 96 1009.5
20220524160414 21 292 1.6 3.2 0.64 0.64 0.64 96 1009.8
20220524155913 21 292 0.0 3.2 0.61 0.61 0.61 96 1009.8
20220524155413 21 292 1.6 4.8 0.56 0.56 0.56 96 1009.8
20220524154912 21 325 1.6 4.8 0.53 0.53 0.53 95 1009.8
20220524154411 22 337 1.6 8.0 0.53 0.53 0.53 95 1009.8
20220524153910 22 271 1.6 8.0 0.51 0.51 0.51 94 1009.8
20220524153410 22 171 1.6 12.9 0.48 0.48 0.48 93 1009.8
20220524152908 23 220 1.6 12.9 0.41 0.41 0.41 91 1009.8
20220524152407 25 193 1.6 12.9 0.23 0.23 0.23 90 1010.2
20220524151906 26 207 4.8 12.9 0.03 0.03 0.03 92 1009.5
20220524151405 26 16 0.0 0.0 0.00 0.00 0.00 92 1009.1
20220524150904 26 16 0.0 0.0 0.00 0.00 0.00 92 1008.8
20220524150404 26 16 0.0 1.6 0.00 0.00 0.00 92 1008.8
20220524145902 26 15 0.0 1.6 0.00 0.00 0.00 92 1009.1
20220524145402 26 14 0.0 3.2 0.00 0.00 0.00 92 1009.1
20220524144901 26 14 1.6 3.2 0.00 0.00 0.00 92 1009.1
20220524144400 26 14 1.6 3.2 0.00 0.00 0.00 92 1009.1
20220524143900 26 14 0.0 3.2 0.00 0.00 0.00 93 1009.1
20220524143359 26 267 1.6 3.2 0.00 0.00 0.00 93 1009.1
20220524142858 26 267 1.6 3.2 0.00 0.00 0.00 93 1009.1
20220524142358 26 205 1.6 3.2 0.00 0.00 0.00 93 1009.1
20220524141856 25 298 0.0 3.2 0.00 0.00 0.00 94 1009.1
20220524141355 25 298 1.6 3.2 0.00 0.00 0.00 94 1009.1
20220524140854 25 298 1.6 3.2 0.00 0.00 0.00 94 1009.5